createdAt,value
2018-02-06T00:00:24.664Z,0.33
2018-02-06T00:01:24.595Z,0.27
2018-02-06T00:02:24.953Z,0.29
2018-02-06T00:03:24.619Z,0.29
2018-02-06T00:04:24.559Z,0.3
2018-02-06T00:05:24.582Z,0.27
2018-02-06T00:06:24.636Z,0.26
2018-02-06T00:07:24.719Z,0.27
2018-02-06T00:08:24.761Z,0.25
2018-02-06T00:09:24.639Z,0.23
2018-02-06T00:10:24.577Z,0.26
2018-02-06T00:11:24.644Z,0.25
2018-02-06T00:12:24.586Z,0.25
2018-02-06T00:13:24.688Z,0.23
2018-02-06T00:14:24.648Z,0.2
2018-02-06T00:15:24.577Z,0.2
2018-02-06T00:16:24.657Z,0.19
2018-02-06T00:17:24.788Z,0.22
2018-02-06T00:18:24.534Z,0.22
2018-02-06T00:19:24.599Z,0.19
2018-02-06T00:20:24.595Z,0.2
2018-02-06T00:21:24.598Z,0.19
2018-02-06T00:22:24.927Z,0.18
2018-02-06T00:23:24.619Z,0.16
2018-02-06T00:24:24.620Z,0.2
2018-02-06T00:25:24.596Z,0.18
2018-02-06T00:26:24.702Z,0.15
2018-02-06T00:27:24.603Z,0.18
2018-02-06T00:28:24.682Z,0.18
2018-02-06T00:29:24.576Z,0.19
2018-02-06T00:30:24.615Z,0.13
2018-02-06T00:31:24.600Z,0.16
2018-02-06T00:32:24.641Z,0.18
2018-02-06T00:33:24.602Z,0.18
2018-02-06T00:34:24.651Z,0.16
2018-02-06T00:35:24.568Z,0.19
2018-02-06T00:36:24.638Z,0.18
2018-02-06T00:39:24.711Z,0.16
2018-02-06T00:40:24.664Z,0.18
2018-02-06T00:41:24.717Z,0.15
2018-02-06T00:42:24.712Z,0.16
2018-02-06T00:43:24.564Z,0.18
2018-02-06T00:44:24.645Z,0.2
2018-02-06T00:45:24.569Z,0.2
2018-02-06T00:46:24.804Z,0.2
2018-02-06T00:47:24.651Z,0.22
2018-02-06T00:48:24.636Z,0.18
2018-02-06T00:49:24.605Z,0.16
2018-02-06T00:50:24.627Z,0.18
2018-02-06T00:51:24.736Z,0.15
2018-02-06T00:52:24.711Z,0.18
2018-02-06T00:55:24.616Z,0.13
2018-02-06T00:56:24.588Z,0.1
2018-02-06T00:57:24.628Z,0.1
2018-02-06T00:58:24.605Z,0.08
2018-02-06T00:59:24.691Z,0.09
2018-02-06T01:00:24.401Z,0.06
2018-02-06T01:01:24.454Z,0.05
2018-02-06T01:02:24.461Z,0.06
2018-02-06T01:03:24.465Z,0.06
2018-02-06T01:04:24.548Z,0.06
2018-02-06T01:05:24.466Z,0.05
2018-02-06T01:06:24.512Z,0.06
2018-02-06T01:07:24.429Z,0.06
2018-02-06T01:08:24.473Z,0.05
2018-02-06T01:09:24.810Z,0.06
2018-02-06T01:10:24.442Z,0.05
2018-02-06T01:11:24.453Z,0.05
2018-02-06T01:12:24.450Z,0.03
2018-02-06T01:13:24.456Z,0.03
2018-02-06T01:14:24.546Z,0.01
2018-02-06T01:15:24.580Z,0.03
2018-02-06T01:18:24.554Z,0.02
2018-02-06T01:19:24.575Z,0.02
2018-02-06T01:20:24.485Z,0.05
2018-02-06T01:21:24.443Z,0.06
2018-02-06T01:22:24.501Z,0.03
2018-02-06T01:23:24.562Z,0.02
2018-02-06T01:24:24.841Z,0.02
2018-02-06T01:25:24.451Z,0.05
2018-02-06T01:26:24.455Z,0.01
2018-02-06T01:27:24.509Z,0.02
2018-02-06T01:28:24.540Z,0.02
2018-02-06T01:29:24.573Z,0.02
2018-02-06T01:30:24.547Z,0.03
2018-02-06T01:31:24.477Z,0.01
2018-02-06T01:32:24.508Z,0.01
2018-02-06T01:33:24.457Z,0.06
2018-02-06T01:34:24.503Z,0.06
2018-02-06T01:35:24.611Z,0.12
2018-02-06T01:36:24.536Z,0.1
2018-02-06T01:37:24.518Z,0.12
2018-02-06T01:38:24.483Z,0.09
2018-02-06T01:39:24.455Z,0.08
2018-02-06T01:40:24.553Z,0.09
2018-02-06T01:41:24.465Z,0.1
2018-02-06T01:42:24.474Z,0.08
2018-02-06T01:43:24.495Z,0.06
2018-02-06T01:44:24.524Z,0.1
2018-02-06T01:45:24.566Z,0.1
2018-02-06T01:46:24.464Z,0.12
2018-02-06T01:47:24.464Z,0.1
2018-02-06T01:48:24.568Z,0.08
2018-02-06T01:49:24.446Z,0.12
2018-02-06T01:50:24.584Z,0.15
2018-02-06T01:51:24.460Z,0.13
2018-02-06T01:52:24.511Z,0.1
2018-02-06T01:53:24.479Z,0.13
2018-02-06T01:54:24.542Z,0.1
2018-02-06T01:55:24.829Z,0.12
2018-02-06T01:56:24.513Z,0.13
2018-02-06T01:57:24.529Z,0.09
2018-02-06T01:58:24.503Z,0.1
2018-02-06T01:59:24.490Z,0.1
2018-02-06T02:00:24.516Z,0.08
2018-02-06T02:01:24.576Z,0.08
2018-02-06T02:02:24.466Z,0.06
2018-02-06T02:03:24.491Z,0.05
2018-02-06T02:04:24.527Z,0.02
2018-02-06T02:05:24.467Z,0.02
2018-02-06T02:06:24.529Z,-0.01
2018-02-06T02:07:24.446Z,0.02
2018-02-06T02:08:24.467Z,0.01
2018-02-06T02:09:24.435Z,0.01
2018-02-06T02:10:24.492Z,0.02
2018-02-06T02:11:24.461Z,-0.01
2018-02-06T02:12:24.517Z,0.02
2018-02-06T02:13:24.545Z,-0.01
2018-02-06T02:14:24.442Z,-0.01
2018-02-06T02:15:24.455Z,-0.04
2018-02-06T02:16:24.443Z,-0.02
2018-02-06T02:17:24.534Z,0.02
2018-02-06T02:18:24.505Z,-0.01
2018-02-06T02:19:24.481Z,0.03
2018-02-06T02:20:24.509Z,0.03
2018-02-06T02:21:24.439Z,0.03
2018-02-06T02:22:24.484Z,0.02
2018-02-06T02:23:24.482Z,0.01
2018-02-06T02:24:24.511Z,0.02
2018-02-06T02:25:24.442Z,0.01
2018-02-06T02:26:24.502Z,0.01
2018-02-06T02:27:24.559Z,0.03
2018-02-06T02:28:24.627Z,0.06
2018-02-06T02:29:24.433Z,0.06
2018-02-06T02:30:24.479Z,0.09
2018-02-06T02:31:24.475Z,0.09
2018-02-06T02:32:24.389Z,0.09
2018-02-06T02:33:25.487Z,0.06
2018-02-06T02:34:25.134Z,0.09
2018-02-06T02:35:25.194Z,0.08
2018-02-06T02:36:25.159Z,0.06
2018-02-06T02:37:25.200Z,0.03
2018-02-06T02:38:25.111Z,0.03
2018-02-06T02:39:25.231Z,0.01
2018-02-06T02:40:25.170Z,-0.01
2018-02-06T02:41:25.154Z,0.02
2018-02-06T04:39:25.244Z,-0.19
2018-02-06T04:40:25.259Z,-0.17
2018-02-06T04:41:25.358Z,-0.17
2018-02-06T04:42:25.379Z,-0.17
2018-02-06T04:43:25.435Z,-0.17
2018-02-06T04:44:25.491Z,-0.17
2018-02-06T04:45:25.278Z,-0.18
2018-02-06T04:46:25.319Z,-0.17
2018-02-06T04:47:25.307Z,-0.17
2018-02-06T04:48:25.288Z,-0.18
2018-02-06T04:49:25.345Z,-0.18
2018-02-06T04:50:25.255Z,-0.19
2018-02-06T04:51:25.291Z,-0.17
2018-02-06T04:52:25.252Z,-0.18
2018-02-06T04:53:25.205Z,-0.18
2018-02-06T04:54:25.214Z,-0.18
2018-02-06T04:55:25.313Z,-0.19
2018-02-06T04:56:25.275Z,-0.18
2018-02-06T04:57:25.268Z,-0.19
2018-02-06T04:58:25.267Z,-0.19
2018-02-06T04:59:25.262Z,-0.19
2018-02-06T05:02:25.279Z,-0.22
2018-02-06T05:03:25.286Z,-0.23
2018-02-06T05:04:25.344Z,-0.17
2018-02-06T05:05:25.205Z,-0.12
2018-02-06T05:06:25.221Z,-0.12
2018-02-06T05:07:25.264Z,-0.14
2018-02-06T05:08:25.119Z,-0.14
2018-02-06T05:09:25.179Z,-0.14
2018-02-06T05:10:25.112Z,-0.11
2018-02-06T05:11:25.117Z,-0.12
2018-02-06T05:12:25.172Z,-0.09
2018-02-06T05:13:25.103Z,-0.05
2018-02-06T05:14:25.278Z,-0.04
2018-02-06T05:15:25.296Z,-0.05
2018-02-06T05:16:25.172Z,-0.05
2018-02-06T05:17:25.171Z,-0.01
2018-02-06T05:18:25.176Z,-0.04
2018-02-06T05:19:25.161Z,-0.02
2018-02-06T05:20:25.184Z,-0.08
2018-02-06T05:21:25.174Z,-0.08
2018-02-06T05:22:25.168Z,-0.09
2018-02-06T05:23:25.118Z,-0.11
2018-02-06T05:24:25.228Z,-0.14
2018-02-06T05:25:25.167Z,-0.12
2018-02-06T05:26:25.187Z,-0.14
2018-02-06T05:27:25.123Z,-0.17
2018-02-06T05:28:25.162Z,-0.19
2018-02-06T05:29:25.251Z,-0.17
2018-02-06T05:30:25.168Z,-0.18
2018-02-06T05:31:25.221Z,-0.15
2018-02-06T05:32:25.201Z,-0.18
2018-02-06T05:33:25.154Z,-0.17
2018-02-06T05:34:25.215Z,-0.17
2018-02-06T05:35:25.273Z,-0.18
2018-02-06T05:36:25.113Z,-0.18
2018-02-06T05:37:25.195Z,-0.18
2018-02-06T05:38:25.154Z,-0.18
2018-02-06T05:39:25.099Z,-0.17
2018-02-06T05:40:25.173Z,-0.15
2018-02-06T05:41:25.106Z,-0.14
2018-02-06T05:42:25.055Z,-0.14
2018-02-06T05:43:25.045Z,-0.17
2018-02-06T05:44:25.093Z,-0.14
2018-02-06T05:45:25.188Z,-0.12
2018-02-06T05:46:25.061Z,-0.14
2018-02-06T05:47:25.153Z,-0.17
2018-02-06T05:48:25.107Z,-0.18
2018-02-06T05:49:25.068Z,-0.18
2018-02-06T05:50:25.081Z,-0.15
2018-02-06T05:51:25.101Z,-0.15
2018-02-06T05:52:25.100Z,-0.18
2018-02-06T05:53:25.154Z,-0.14
2018-02-06T05:54:25.156Z,-0.15
2018-02-06T05:55:25.138Z,-0.14
2018-02-06T05:56:25.184Z,-0.12
2018-02-06T05:57:25.081Z,-0.17
2018-02-06T05:58:25.115Z,-0.17
2018-02-06T05:59:25.068Z,-0.17
2018-02-06T06:00:25.089Z,-0.15
2018-02-06T06:01:25.134Z,-0.15
2018-02-06T06:02:25.158Z,-0.18
2018-02-06T06:03:25.217Z,-0.18
2018-02-06T06:04:25.100Z,-0.18
2018-02-06T06:05:25.173Z,-0.19
2018-02-06T06:06:25.326Z,-0.19
2018-02-06T06:07:25.148Z,-0.19
2018-02-06T06:08:25.254Z,-0.18
2018-02-06T06:09:25.282Z,-0.18
2018-02-06T06:10:25.281Z,-0.15
2018-02-06T06:11:25.257Z,-0.18
2018-02-06T06:12:25.255Z,-0.18
2018-02-06T06:13:25.209Z,-0.14
2018-02-06T06:14:25.306Z,-0.12
2018-02-06T06:15:25.258Z,-0.11
2018-02-06T06:16:25.292Z,-0.09
2018-02-06T06:17:25.296Z,-0.12
2018-02-06T06:18:25.223Z,-0.11
2018-02-06T06:19:25.353Z,-0.15
2018-02-06T06:20:25.279Z,-0.15
2018-02-06T06:21:25.275Z,-0.17
2018-02-06T06:22:25.223Z,-0.18
2018-02-06T06:23:25.311Z,-0.14
2018-02-06T06:24:25.238Z,-0.15
2018-02-06T06:25:25.252Z,-0.17
2018-02-06T06:26:25.305Z,-0.15
2018-02-06T06:27:35.382Z,-0.17
2018-02-06T06:28:25.194Z,-0.18
2018-02-06T06:29:25.204Z,-0.18
2018-02-06T06:30:25.223Z,-0.17
2018-02-06T06:31:25.231Z,-0.15
2018-02-06T06:32:25.234Z,-0.17
2018-02-06T06:33:25.251Z,-0.12
2018-02-06T06:34:25.373Z,-0.17
2018-02-06T06:35:25.261Z,-0.17
2018-02-06T06:36:25.271Z,-0.17
2018-02-06T06:37:25.350Z,-0.18
2018-02-06T06:38:25.315Z,-0.18
2018-02-06T06:39:25.281Z,-0.17
2018-02-06T06:40:25.186Z,-0.17
2018-02-06T06:41:25.199Z,-0.17
2018-02-06T06:42:25.292Z,-0.21
2018-02-06T06:43:25.263Z,-0.18
2018-02-06T06:44:25.248Z,-0.15
2018-02-06T06:45:25.329Z,-0.14
2018-02-06T06:46:25.218Z,-0.15
2018-02-06T06:47:25.363Z,-0.12
2018-02-06T06:48:25.358Z,-0.12
2018-02-06T06:49:25.260Z,-0.15
2018-02-06T06:50:25.241Z,-0.15
2018-02-06T06:51:25.286Z,-0.15
2018-02-06T06:52:25.350Z,-0.14
2018-02-06T06:53:25.278Z,-0.15
2018-02-06T06:54:25.306Z,-0.18
2018-02-06T06:55:25.303Z,-0.15
2018-02-06T06:56:25.290Z,-0.17
2018-02-06T06:57:25.443Z,-0.14
2018-02-06T06:58:25.351Z,-0.11
2018-02-06T06:59:25.263Z,-0.08
2018-02-06T07:00:25.329Z,-0.12
2018-02-06T07:01:25.369Z,-0.12
2018-02-06T07:02:25.351Z,-0.12
2018-02-06T07:03:25.313Z,-0.12
2018-02-06T07:04:25.251Z,-0.12
2018-02-06T07:05:25.213Z,-0.12
2018-02-06T07:06:25.201Z,-0.09
2018-02-06T07:07:25.195Z,-0.12
2018-02-06T07:08:25.291Z,-0.12
2018-02-06T07:09:25.310Z,-0.09
2018-02-06T07:10:25.298Z,-0.12
2018-02-06T07:11:25.331Z,-0.08
2018-02-06T07:12:25.346Z,-0.07
2018-02-06T07:13:25.741Z,-0.07
2018-02-06T07:14:25.413Z,-0.05
2018-02-06T07:15:25.294Z,-0.02
2018-02-06T07:16:25.332Z,-0.01
2018-02-06T07:17:25.295Z,-0.05
2018-02-06T07:18:25.364Z,-0.07
2018-02-06T07:19:25.361Z,-0.08
2018-02-06T07:20:25.258Z,-0.05
2018-02-06T07:21:25.332Z,-0.08
2018-02-06T07:22:25.315Z,-0.09
2018-02-06T07:23:25.319Z,-0.08
2018-02-06T07:24:25.322Z,-0.07
2018-02-06T07:25:25.356Z,-0.08
2018-02-06T07:26:25.382Z,-0.12
2018-02-06T07:27:25.290Z,-0.11
2018-02-06T07:28:25.412Z,-0.08
2018-02-06T07:29:25.333Z,-0.07
2018-02-06T07:30:25.377Z,-0.04
2018-02-06T07:31:25.339Z,-0.05
2018-02-06T07:32:25.320Z,-0.01
2018-02-06T07:33:25.339Z,-0.04
2018-02-06T07:34:25.327Z,0.01
2018-02-06T07:35:25.360Z,0.02
2018-02-06T07:36:25.330Z,0.03
2018-02-06T07:37:25.471Z,0.02
2018-02-06T07:38:25.362Z,0.03
2018-02-06T07:39:25.298Z,0.02
2018-02-06T07:40:25.384Z,0.02
2018-02-06T07:41:25.349Z,0.05
2018-02-06T07:42:25.396Z,0.03
2018-02-06T07:43:25.427Z,0.05
2018-02-06T07:44:25.476Z,0.06
2018-02-06T07:45:25.459Z,0.05
2018-02-06T07:46:25.416Z,0.03
2018-02-06T07:47:25.395Z,0.06
2018-02-06T07:48:25.354Z,0.08
2018-02-06T07:49:25.434Z,0.08
2018-02-06T07:50:25.424Z,0.1
2018-02-06T07:51:25.386Z,0.09
2018-02-06T07:52:25.476Z,0.08
2018-02-06T07:53:25.420Z,0.06
2018-02-06T07:54:25.367Z,0.09
2018-02-06T07:55:25.299Z,0.1
2018-02-06T07:56:25.311Z,0.12
2018-02-06T07:57:25.357Z,0.12
2018-02-06T07:58:25.417Z,0.13
2018-02-06T07:59:25.332Z,0.12
2018-02-06T08:00:25.378Z,0.12
2018-02-06T08:01:25.416Z,0.12
2018-02-06T08:02:25.473Z,0.15
2018-02-06T08:03:25.456Z,0.13
2018-02-06T08:04:25.471Z,0.16
2018-02-06T08:05:25.687Z,0.16
2018-02-06T08:06:25.428Z,0.12
2018-02-06T08:07:25.431Z,0.15
2018-02-06T08:08:25.384Z,0.15
2018-02-06T08:09:25.352Z,0.18
2018-02-06T08:10:25.405Z,0.16
2018-02-06T08:11:25.350Z,0.19
2018-02-06T08:12:25.272Z,0.18
2018-02-06T08:13:25.328Z,0.19
2018-02-06T08:14:25.253Z,0.19
2018-02-06T08:15:25.291Z,0.22
2018-02-06T08:16:25.340Z,0.22
2018-02-06T08:17:25.232Z,0.22
2018-02-06T08:18:25.287Z,0.23
2018-02-06T08:19:25.325Z,0.22
2018-02-06T08:20:25.322Z,0.23
2018-02-06T08:21:25.269Z,0.25
2018-02-06T08:22:25.201Z,0.27
2018-02-06T08:23:25.280Z,0.25
2018-02-06T08:24:25.280Z,0.32
2018-02-06T08:25:25.334Z,0.33
2018-02-06T08:26:25.298Z,0.34
2018-02-06T08:27:25.231Z,0.36
2018-02-06T08:28:25.318Z,0.37
2018-02-06T08:29:25.378Z,0.36
2018-02-06T08:30:25.319Z,0.36
2018-02-06T08:31:25.254Z,0.4
2018-02-06T08:32:25.299Z,0.4
2018-02-06T08:33:25.290Z,0.41
2018-02-06T08:34:25.296Z,0.41
2018-02-06T08:35:25.272Z,0.43
2018-02-06T08:36:25.275Z,0.44
2018-02-06T08:37:25.294Z,0.43
2018-02-06T08:38:25.336Z,0.43
2018-02-06T08:39:25.295Z,0.41
2018-02-06T08:40:25.224Z,0.43
2018-02-06T08:41:25.291Z,0.47
2018-02-06T08:42:25.287Z,0.46
2018-02-06T08:43:25.303Z,0.48
2018-02-06T08:44:25.319Z,0.48
2018-02-06T08:45:25.280Z,0.5
2018-02-06T08:46:25.198Z,0.5
2018-02-06T08:47:25.219Z,0.53
2018-02-06T08:48:25.286Z,0.51
2018-02-06T08:49:25.245Z,0.53
2018-02-06T08:50:25.191Z,0.55
2018-02-06T08:51:25.199Z,0.54
2018-02-06T08:52:25.235Z,0.54
2018-02-06T08:53:25.233Z,0.51
2018-02-06T08:54:25.220Z,0.54
2018-02-06T08:55:25.259Z,0.58
2018-02-06T08:56:25.254Z,0.61
2018-02-06T08:57:25.234Z,0.6
2018-02-06T08:58:25.283Z,0.6
2018-02-06T08:59:25.229Z,0.63
2018-02-06T09:00:25.215Z,0.63
2018-02-06T09:01:25.268Z,0.64
2018-02-06T09:02:25.227Z,0.64
2018-02-06T09:03:25.189Z,0.6
2018-02-06T09:04:25.246Z,0.6
2018-02-06T09:05:25.218Z,0.61
2018-02-06T09:06:25.316Z,0.65
2018-02-06T09:07:25.280Z,0.64
2018-02-06T09:08:25.215Z,0.63
2018-02-06T09:09:25.193Z,0.63
2018-02-06T09:10:25.230Z,0.63
2018-02-06T09:11:25.975Z,0.63
2018-02-06T09:12:25.222Z,0.68
2018-02-06T09:13:25.230Z,0.65
2018-02-06T09:14:25.107Z,0.68
2018-02-06T09:15:25.112Z,0.65
2018-02-06T09:16:25.067Z,0.69
2018-02-06T09:17:25.054Z,0.68
2018-02-06T09:18:25.089Z,0.69
2018-02-06T09:19:25.106Z,0.69
2018-02-06T09:20:25.143Z,0.69
2018-02-06T09:21:25.089Z,0.69
2018-02-06T09:22:25.132Z,0.72
2018-02-06T09:23:25.204Z,0.68
2018-02-06T09:24:25.108Z,0.74
2018-02-06T09:25:25.044Z,0.75
2018-02-06T09:26:25.068Z,0.76
2018-02-06T09:27:25.082Z,0.76
2018-02-06T09:28:25.133Z,0.76
2018-02-06T09:29:25.084Z,0.78
2018-02-06T09:30:25.088Z,0.79
2018-02-06T09:31:25.133Z,0.75
2018-02-06T09:32:25.116Z,0.76
2018-02-06T09:33:25.147Z,0.76
2018-02-06T09:34:25.066Z,0.83
2018-02-06T09:35:25.028Z,0.83
2018-02-06T09:36:25.135Z,0.83
2018-02-06T09:37:25.052Z,0.81
2018-02-06T09:38:25.077Z,0.83
2018-02-06T09:39:25.052Z,0.85
2018-02-06T09:40:25.037Z,0.83
2018-02-06T09:41:25.087Z,0.88
2018-02-06T09:42:25.116Z,0.92
2018-02-06T09:43:25.115Z,0.93
2018-02-06T09:44:25.105Z,0.89
2018-02-06T09:45:24.982Z,0.92
2018-02-06T09:46:24.941Z,0.92
2018-02-06T09:47:24.961Z,0.95
2018-02-06T09:48:24.991Z,0.98
2018-02-06T09:49:24.941Z,1.02
2018-02-06T09:50:24.993Z,1
2018-02-06T09:51:25.002Z,0.98
2018-02-06T09:52:25.035Z,1.02
2018-02-06T09:53:25.013Z,1.02
2018-02-06T09:54:25.026Z,1.04
2018-02-06T09:55:25.035Z,1.1
2018-02-06T09:56:25.016Z,1.1
2018-02-06T09:57:24.996Z,1.11
2018-02-06T09:58:24.944Z,1.15
2018-02-06T09:59:24.965Z,1.16
2018-02-06T10:00:24.932Z,1.17
2018-02-06T10:01:24.989Z,1.19
2018-02-06T10:02:24.963Z,1.22
2018-02-06T10:03:25.016Z,1.22
2018-02-06T10:04:25.054Z,1.26
2018-02-06T10:05:25.036Z,1.3
2018-02-06T10:06:24.984Z,1.3
2018-02-06T10:07:25.726Z,1.34
2018-02-06T10:08:25.097Z,1.38
2018-02-06T10:09:24.985Z,1.38
2018-02-06T10:10:25.058Z,1.4
2018-02-06T10:11:25.048Z,1.41
2018-02-06T10:12:25.019Z,1.45
2018-02-06T10:13:25.006Z,1.51
2018-02-06T10:14:24.940Z,1.54
2018-02-06T10:15:25.047Z,1.54
2018-02-06T10:16:25.031Z,1.58
2018-02-06T10:17:25.053Z,1.62
2018-02-06T10:18:24.996Z,1.66
2018-02-06T10:19:25.045Z,1.73
2018-02-06T10:20:24.991Z,1.76
2018-02-06T10:21:24.945Z,1.76
2018-02-06T10:22:25.010Z,1.81
2018-02-06T10:23:25.123Z,1.87
2018-02-06T10:24:24.980Z,1.9
2018-02-06T10:25:24.999Z,1.93
2018-02-06T10:26:24.979Z,1.97
2018-02-06T10:27:25.005Z,1.99
2018-02-06T10:28:24.983Z,2.04
2018-02-06T10:29:25.020Z,2.06
2018-02-06T10:30:24.973Z,2.07
2018-02-06T10:31:25.688Z,2.11
2018-02-06T10:32:25.111Z,2.14
2018-02-06T10:33:25.016Z,2.18
2018-02-06T10:34:25.001Z,2.22
2018-02-06T10:35:25.032Z,2.22
2018-02-06T10:36:25.005Z,2.18
2018-02-06T10:37:24.997Z,2.18
2018-02-06T10:38:24.958Z,2.14
2018-02-06T10:39:25.344Z,2.13
2018-02-06T10:40:25.099Z,2.13
2018-02-06T10:41:24.997Z,2.13
2018-02-06T10:42:24.976Z,2.14
2018-02-06T10:43:24.996Z,2.14
2018-02-06T10:44:25.000Z,2.16
2018-02-06T10:45:25.007Z,2.18
2018-02-06T10:46:24.983Z,2.2
2018-02-06T10:47:24.839Z,2.24
2018-02-06T10:48:24.812Z,2.27
2018-02-06T10:49:24.842Z,2.24
2018-02-06T10:50:24.824Z,2.28
2018-02-06T10:51:24.827Z,2.33
2018-02-06T10:52:24.789Z,2.28
2018-02-06T10:53:24.807Z,2.27
2018-02-06T10:54:24.813Z,2.24
2018-02-06T10:55:24.781Z,2.28
2018-02-06T10:56:24.797Z,2.3
2018-02-06T10:57:24.764Z,2.31
2018-02-06T10:58:24.772Z,2.31
2018-02-06T10:59:24.862Z,2.36
2018-02-06T11:00:24.828Z,2.36
2018-02-06T11:01:24.822Z,2.38
2018-02-06T11:02:24.815Z,2.37
2018-02-06T11:03:24.835Z,2.38
2018-02-06T11:04:24.842Z,2.37
2018-02-06T11:05:24.857Z,2.36
2018-02-06T11:06:24.805Z,2.31
2018-02-06T11:07:24.790Z,2.37
2018-02-06T11:08:24.799Z,2.37
2018-02-06T11:09:24.823Z,2.38
2018-02-06T11:10:24.841Z,2.41
2018-02-06T11:11:24.801Z,2.45
2018-02-06T11:12:24.897Z,2.41
2018-02-06T11:13:24.802Z,2.38
2018-02-06T11:14:24.833Z,2.41
2018-02-06T11:15:24.804Z,2.43
2018-02-06T11:16:24.855Z,2.43
2018-02-06T11:17:24.830Z,2.45
2018-02-06T11:18:24.784Z,2.43
2018-02-06T11:19:24.679Z,2.41
2018-02-06T11:20:24.640Z,2.38
2018-02-06T11:21:24.642Z,2.36
2018-02-06T11:22:24.642Z,2.36
2018-02-06T11:23:24.646Z,2.36
2018-02-06T11:24:24.694Z,2.37
2018-02-06T11:25:24.649Z,2.34
2018-02-06T11:26:24.626Z,2.31
2018-02-06T11:27:24.612Z,2.34
2018-02-06T11:28:24.694Z,2.34
2018-02-06T11:29:24.654Z,2.4
2018-02-06T11:30:24.667Z,2.38
2018-02-06T11:31:24.647Z,2.37
2018-02-06T11:32:24.739Z,2.36
2018-02-06T11:33:24.726Z,2.38
2018-02-06T11:34:24.642Z,2.38
2018-02-06T11:35:24.647Z,2.34
2018-02-06T11:36:24.757Z,2.34
2018-02-06T11:37:24.709Z,2.31
2018-02-06T11:38:24.641Z,2.31
2018-02-06T11:39:24.700Z,2.33
2018-02-06T11:40:24.629Z,2.33
2018-02-06T11:41:24.695Z,2.31
2018-02-06T11:42:24.689Z,2.28
2018-02-06T11:43:24.651Z,2.27
2018-02-06T11:44:24.938Z,2.3
2018-02-06T11:45:24.641Z,2.3
2018-02-06T11:46:24.631Z,2.28
2018-02-06T11:47:24.656Z,2.27
2018-02-06T11:48:24.740Z,2.31
2018-02-06T11:49:24.766Z,2.18
2018-02-06T11:50:24.828Z,2.18
2018-02-06T11:51:24.663Z,2.16
2018-02-06T11:52:24.770Z,2.21
2018-02-06T11:53:24.745Z,2.2
2018-02-06T11:54:24.658Z,2.21
2018-02-06T11:55:24.690Z,2.21
2018-02-06T11:56:24.684Z,2.24
2018-02-06T11:57:24.712Z,2.26
2018-02-06T11:58:24.784Z,2.26
2018-02-06T11:59:24.735Z,2.21
2018-02-06T12:00:24.771Z,2.22
2018-02-06T12:01:24.661Z,2.24
2018-02-06T12:02:24.694Z,2.2
2018-02-06T12:03:24.687Z,2.22
2018-02-06T12:04:24.726Z,2.22
2018-02-06T12:05:24.642Z,2.22
2018-02-06T12:06:24.671Z,2.2
2018-02-06T12:07:24.668Z,2.22
2018-02-06T12:08:24.686Z,2.21
2018-02-06T12:09:24.783Z,2.24
2018-02-06T12:10:24.749Z,2.22
2018-02-06T12:11:24.747Z,2.22
2018-02-06T12:12:24.693Z,2.21
2018-02-06T12:13:24.789Z,2.17
2018-02-06T12:14:24.790Z,2.22
2018-02-06T12:15:24.786Z,2.24
2018-02-06T12:16:24.689Z,2.3
2018-02-06T12:17:24.728Z,2.3
2018-02-06T12:18:24.641Z,2.3
2018-02-06T12:19:24.748Z,2.28
2018-02-06T12:20:24.542Z,2.28
2018-02-06T12:21:24.925Z,2.3
2018-02-06T12:22:24.533Z,2.31
2018-02-06T12:23:24.531Z,2.28
2018-02-06T12:24:24.614Z,2.27
2018-02-06T12:25:24.521Z,2.31
2018-02-06T12:26:24.564Z,2.33
2018-02-06T12:27:24.572Z,2.33
2018-02-06T12:28:24.573Z,2.34
2018-02-06T12:29:24.538Z,2.33
2018-02-06T12:30:24.543Z,2.4
2018-02-06T12:31:24.573Z,2.41
2018-02-06T12:32:24.545Z,2.48
2018-02-06T12:33:24.514Z,2.49
2018-02-06T12:34:24.566Z,2.52
2018-02-06T12:35:24.535Z,2.45
2018-02-06T12:36:24.583Z,2.43
2018-02-06T12:37:24.558Z,2.48
2018-02-06T12:38:24.531Z,2.48
2018-02-06T12:39:24.588Z,2.52
2018-02-06T12:40:24.557Z,2.49
2018-02-06T12:41:24.562Z,2.55
2018-02-06T12:42:24.580Z,2.58
2018-02-06T12:43:24.622Z,2.58
2018-02-06T12:44:24.644Z,2.61
2018-02-06T12:45:24.587Z,2.51
2018-02-06T12:46:24.546Z,2.54
2018-02-06T12:47:24.606Z,2.55
2018-02-06T12:48:24.554Z,2.56
2018-02-06T12:49:24.543Z,2.65
2018-02-06T12:50:24.558Z,2.71
2018-02-06T12:51:24.369Z,2.68
2018-02-06T12:52:24.422Z,2.66
2018-02-06T12:53:24.382Z,2.69
2018-02-06T12:54:24.439Z,2.77
2018-02-06T12:55:24.422Z,2.82
2018-02-06T12:56:24.382Z,2.83
2018-02-06T12:57:24.660Z,2.92
2018-02-06T12:58:24.396Z,2.97
2018-02-06T12:59:24.491Z,3.03
2018-02-06T13:00:24.469Z,3.01
2018-02-06T13:01:24.404Z,3.07
2018-02-06T13:02:24.430Z,3.1
2018-02-06T13:03:24.397Z,3.14
2018-02-06T13:04:24.457Z,3.17
2018-02-06T13:05:24.444Z,3.2
2018-02-06T13:06:24.409Z,3.24
2018-02-06T13:07:24.394Z,3.29
2018-02-06T13:08:24.449Z,3.25
2018-02-06T13:09:24.432Z,3.29
2018-02-06T13:10:24.357Z,3.24
2018-02-06T13:11:24.429Z,3.08
2018-02-06T13:12:24.416Z,3.03
2018-02-06T13:13:24.465Z,3.1
2018-02-06T13:14:24.430Z,3.15
2018-02-06T13:15:24.433Z,3.17
2018-02-06T13:16:24.414Z,3.15
2018-02-06T13:17:24.433Z,3.15
2018-02-06T13:18:24.446Z,3.22
2018-02-06T13:19:24.460Z,3.24
2018-02-06T13:20:24.376Z,3.24
2018-02-06T13:21:24.383Z,3.31
2018-02-06T13:22:25.177Z,3.35
2018-02-06T13:23:25.182Z,3.41
2018-02-06T13:24:25.130Z,3.45
2018-02-06T13:25:25.184Z,3.48
2018-02-06T13:26:25.186Z,3.49
2018-02-06T13:27:25.171Z,3.49
2018-02-06T13:28:25.178Z,3.54
2018-02-06T13:29:25.183Z,3.54
2018-02-06T13:30:25.238Z,3.61
2018-02-06T13:31:25.158Z,3.65
2018-02-06T13:32:25.162Z,3.67
2018-02-06T13:33:25.138Z,3.66
2018-02-06T13:34:25.187Z,3.66
2018-02-06T13:35:25.859Z,3.63
2018-02-06T13:36:25.255Z,3.59
2018-02-06T13:37:25.277Z,3.61
2018-02-06T13:38:25.229Z,3.59
2018-02-06T13:39:25.205Z,3.59
2018-02-06T13:40:25.138Z,3.49
2018-02-06T13:41:25.176Z,3.46
2018-02-06T13:42:25.136Z,3.41
2018-02-06T13:43:25.147Z,3.41
2018-02-06T13:44:25.346Z,3.44
2018-02-06T13:45:25.179Z,3.42
2018-02-06T13:46:25.186Z,3.45
2018-02-06T13:47:25.152Z,3.42
2018-02-06T13:48:25.167Z,3.44
2018-02-06T13:49:25.227Z,3.49
2018-02-06T13:50:25.164Z,3.49
2018-02-06T13:51:25.269Z,3.49
2018-02-06T13:52:25.097Z,3.51
2018-02-06T13:53:25.143Z,3.54
2018-02-06T13:54:25.416Z,3.46
2018-02-06T13:55:25.137Z,3.45
2018-02-06T13:56:25.124Z,3.48
2018-02-06T13:57:25.170Z,3.48
2018-02-06T13:58:25.062Z,3.51
2018-02-06T13:59:25.173Z,3.51
2018-02-06T14:00:25.090Z,3.54
2018-02-06T14:01:25.167Z,3.51
2018-02-06T14:02:25.205Z,3.52
2018-02-06T14:03:25.135Z,3.52
2018-02-06T14:04:25.202Z,3.55
2018-02-06T14:05:25.164Z,3.58
2018-02-06T14:06:25.205Z,3.58
2018-02-06T14:07:25.196Z,3.58
2018-02-06T14:08:25.112Z,3.59
2018-02-06T14:09:25.150Z,3.56
2018-02-06T14:10:25.159Z,3.59
2018-02-06T14:11:25.175Z,3.61
2018-02-06T14:12:25.117Z,3.61
2018-02-06T14:13:25.180Z,3.61
2018-02-06T14:14:25.156Z,3.62
2018-02-06T14:15:25.203Z,3.62
2018-02-06T14:16:25.107Z,3.65
2018-02-06T14:17:25.130Z,3.62
2018-02-06T14:18:25.159Z,3.61
2018-02-06T14:19:25.104Z,3.66
2018-02-06T14:20:25.185Z,3.66
2018-02-06T14:21:25.178Z,3.72
2018-02-06T14:22:25.152Z,3.69
2018-02-06T14:23:25.164Z,3.72
2018-02-06T14:24:25.133Z,3.7
2018-02-06T14:25:25.120Z,3.63
2018-02-06T14:26:25.104Z,3.67
2018-02-06T14:27:25.401Z,3.69
2018-02-06T14:28:25.099Z,3.62
2018-02-06T14:29:25.092Z,3.58
2018-02-06T14:30:25.086Z,3.61
2018-02-06T14:31:25.019Z,3.58
2018-02-06T14:32:25.107Z,3.61
2018-02-06T14:33:25.071Z,3.49
2018-02-06T14:34:25.131Z,3.45
2018-02-06T14:35:25.127Z,3.46
2018-02-06T14:36:25.133Z,3.48
2018-02-06T14:37:25.227Z,3.48
2018-02-06T14:38:25.129Z,3.51
2018-02-06T14:39:25.060Z,3.49
2018-02-06T14:40:25.071Z,3.46
2018-02-06T14:41:25.030Z,3.46
2018-02-06T14:42:25.176Z,3.45
2018-02-06T14:43:25.118Z,3.44
2018-02-06T14:44:25.029Z,3.41
2018-02-06T14:45:25.072Z,3.46
2018-02-06T14:46:25.138Z,3.48
2018-02-06T14:47:25.041Z,3.48
2018-02-06T14:48:25.125Z,3.45
2018-02-06T14:49:25.077Z,3.46
2018-02-06T14:50:25.122Z,3.48
2018-02-06T14:51:25.137Z,3.48
2018-02-06T14:52:25.101Z,3.46
2018-02-06T14:53:25.191Z,3.44
2018-02-06T14:54:25.242Z,3.45
2018-02-06T14:55:25.119Z,3.44
2018-02-06T14:56:25.172Z,3.44
2018-02-06T14:57:25.076Z,3.41
2018-02-06T14:58:25.539Z,3.41
2018-02-06T14:59:25.189Z,3.41
2018-02-06T15:00:25.067Z,3.41
2018-02-06T15:01:25.111Z,3.44
2018-02-06T15:02:25.099Z,3.42
2018-02-06T15:03:25.181Z,3.41
2018-02-06T15:04:25.114Z,3.39
2018-02-06T15:05:25.102Z,3.38
2018-02-06T15:06:25.080Z,3.35
2018-02-06T15:07:25.085Z,3.34
2018-02-06T15:08:25.125Z,3.37
2018-02-06T15:09:25.194Z,3.38
2018-02-06T15:10:25.084Z,3.31
2018-02-06T15:11:25.105Z,3.29
2018-02-06T15:12:25.112Z,3.25
2018-02-06T15:13:25.218Z,3.27
2018-02-06T15:14:25.091Z,3.25
2018-02-06T15:15:25.510Z,3.22
2018-02-06T15:16:25.101Z,3.27
2018-02-06T15:17:25.127Z,3.27
2018-02-06T15:18:25.135Z,3.29
2018-02-06T15:19:25.125Z,3.28